x

Santa Maria - 21nm Nw Of Point Arguello, Ca (46011) Wave Buoy

5:50am - Mon 27th Feb 2017 All times are PST. -8 hours from GMT.

  • Sig Wave height 6.2ft
  • Swell Direction
  • Peak Period 17s
  • Average Period 9s
  • Wind
    7mph, 9mph gusts
  • Sea Temp 55°f
  • Air Temp 52°f
  • Sea Pressure 1012.8mb
  • Santa Maria - 21nm Nw Of Point Arguello, Ca
  • Santa Maria - 21nm Nw Of Point Arguello, Ca

More Historic Weather Station data

Upgrade to MSW Pro to gain access to the past 30 days of data for over 8000 Wavebouys and Weather Stations around the globe.

Join Pro

Comparision Forecast

View Surf forecast
   
Mon 02/27 5:50am 6ft 17s 9s 7 9 mph 1012.8mb 55f 52f
4:50am 8ft 16s 10s 4 7 mph 1012.9mb 55f 52f
3:50am 8ft 15s 10s 2 4 mph 1012.6mb 55f 52f
2:50am 6ft 15s 9s 4 7 mph 1013mb 55f 52f
1:50am 7ft 16s 10s 7 9 mph 1013.5mb 55f 52f
12:50am 7ft 16s 10s 4 7 mph 1014mb 55f 52f
Sun 02/26 11:50pm 6ft 16s 9s 2 4 mph 1014.2mb 55f 52f
10:50pm 6ft 16s 10s 2 4 mph 1014.1mb 55f 52f
9:50pm 6.5ft 17s 10s 4 7 mph 1014mb 55f 52f
8:50pm 6ft 17s 10s 4 7 mph 1013.8mb 55f 52f
7:50pm 5.5ft 17s 9s 7 9 mph 1013.9mb 55f 52f
6:50pm 5ft 17s 9s 4 7 mph 1014mb 55f 52f
5:50pm 5.5ft 17s 9s 9 11 mph 1014.1mb 56f 51f
4:50pm 5ft 19s 9s 9 11 mph 1014.4mb 56f 51f
3:50pm 5ft 14s 8s 7 9 mph 1014.7mb 56f 51f
2:50pm 6ft 14s 9s 9 11 mph 1015mb 56f 52f
1:50pm 5ft 14s 8s 7 9 mph 1015.2mb 56f 51f
12:50pm 6ft 14s 9s 2 4 mph 1015.4mb 55f 51f
11:50am 5ft 15s 8s 7 9 mph 1015.4mb 55f 50f
10:50am 6ft 14s 8s 9 11 mph 1016.1mb 55f 50f
9:50am 6ft 14s 8s 9 13 mph 1016.6mb 55f 49f
8:50am 5ft 15s 8s 11 13 mph 1016.4mb 55f 49f
7:50am 5ft 14s 8s 9 11 mph 1015.9mb 55f 49f
6:50am 4.5ft 14s 8s 4 9 mph 1015.6mb 55f 48f
5:50am 4ft 14s 7s 9 11 mph 1014.7mb 55f 48f
4:50am 4.5ft 14s 7s 13 16 mph 1014.1mb 55f 48f
3:50am 5ft 14s 8s 13 18 mph 1014.2mb 55f 48f
2:50am 5ft 14s 8s 11 13 mph 1014.7mb 55f 48f
1:50am 5ft 15s 9s 11 16 mph 1014.8mb 55f 49f
12:50am 5ft 14s 10s 11 16 mph 1015.4mb 55f 50f
Sat 02/25 11:50pm 5ft 15s 9s 13 18 mph 1015.7mb 55f 51f
10:50pm 5ft 14s 9s 4 7 mph 1017.1mb 55f 51f
9:50pm 5ft 15s 9s 4 7 mph 1017.1mb 55f 51f
8:50pm 5.5ft 14s 9s 7 9 mph 1017.6mb 55f 51f
7:50pm 5ft 15s 9s 7 9 mph 1017.4mb 55f 51f
6:50pm 5ft 15s 8s 9 13 mph 1018.1mb 55f 51f
5:50pm 5.5ft 15s 9s 11 16 mph 1018.2mb 55f 51f
4:50pm 5.5ft 15s 9s 11 13 mph 1018mb 55f 52f
3:50pm 5.5ft 15s 8s 7 11 mph 1018.2mb 55f 51f
2:50pm 6ft 15s 8s 7 9 mph 1018.3mb 55f 51f
1:50pm 7ft 15s 9s 9 11 mph 1019.3mb 55f 51f
12:50pm 5ft 16s 7s 11 13 mph 1020.2mb 55f 51f
11:50am 6ft 15s 8s 13 18 mph 1021mb 55f 51f
10:50am 6ft 15s 7s 11 13 mph 1021.4mb 55f 50f
9:50am 6.5ft 15s 7s 9 11 mph 1021mb 55f 50f
8:50am 7ft 15s 7s 11 16 mph 1021.2mb 55f 50f
7:50am 6ft 15s 7s 16 20 mph 1021.3mb 55f 51f
6:50am 6ft 15s 7s 20 22 mph 1021mb 55f 51f
5:50am 7ft 16s 8s 16 20 mph 1021mb 55f 51f
4:50am 6ft 16s 7s 13 16 mph 1020.9mb 55f 50f
3:50am 7ft 16s 7s 18 20 mph 1020.8mb 55f 51f
2:50am 6ft 16s 7s 18 22 mph 1021.4mb 55f 52f
1:50am 6ft 16s 7s 18 22 mph 1021.9mb 55f 52f
12:50am 7ft 16s 7s 18 22 mph 1022.1mb 55f 52f
Fri 02/24 11:50pm 6.5ft 16s 6s 20 25 mph 1022.5mb 54f 52f
10:50pm 7ft 16s 6s 20 22 mph 1023mb 55f 52f
9:50pm 6.5ft 10s 6s 20 22 mph 1023.1mb 55f 52f
8:50pm 6.5ft 16s 6s 22 25 mph 1022.7mb 55f 52f
7:50pm 6.5ft 17s 6s 22 25 mph 1022.5mb 55f 52f
6:50pm 5.5ft 16s 6s 20 25 mph 1022.4mb 55f 52f
5:50pm 6ft 8s 6s 20 25 mph 1022.4mb 55f 52f
4:50pm 5.5ft 9s 6s 22 25 mph 1022.5mb 55f 52f
3:50pm 5ft 9s 6s 20 25 mph 1022.9mb 55f 52f
2:50pm 6ft 8s 6s 20 25 mph 1023.1mb 55f 52f
1:50pm 5.5ft 9s 6s 18 20 mph 1023.4mb 55f 51f
12:50pm 6ft 8s 6s 16 18 mph 1024.1mb 55f 51f
11:50am 6ft 8s 6s 13 16 mph 1024.7mb 55f 51f
10:50am 6ft 9s 6s 11 16 mph 1025.4mb 55f 50f
9:50am 6ft 10s 6s 16 18 mph 1024.9mb 55f 49f
8:50am 6.5ft 8s 6s 13 16 mph 1024.7mb 55f 49f
7:50am 6.5ft 8s 7s 13 16 mph 1024.2mb 55f 49f
6:50am 6.5ft 8s 6s 16 18 mph 1023.6mb 55f 48f
5:50am 7ft 8s 6s 18 22 mph 1022.8mb 55f 49f
4:50am 7ft 8s 7s 16 18 mph 1022.8mb 55f 49f
3:50am 6.5ft 8s 7s 11 16 mph 1023.1mb 55f 49f
2:50am 7ft 9s 7s 13 16 mph 1022.9mb 55f 50f
1:50am 7.5ft 8s 7s 13 16 mph 1023.3mb 55f 50f
12:50am 8ft 8s 7s 13 16 mph 1023.4mb 55f 50f
Thu 02/23 11:50pm 8.5ft 9s 7s 20 25 mph 1023.2mb 55f 51f
10:50pm 9ft 9s 6s 20 25 mph 1022.8mb 55f 51f
9:50pm 9ft 8s 6s 22 27 mph 1022.5mb 55f 51f
8:50pm 9ft 8s 6s 25 29 mph 1022.1mb 55f 51f
7:50pm 9.5ft 9s 6s 27 31 mph 1021.8mb 55f 51f
6:50pm 9.5ft 7s 6s 27 31 mph 1021.3mb 55f 51f
5:50pm 9ft 8s 6s 27 34 mph 1020.9mb 55f 51f
4:50pm 9ft 8s 6s 27 31 mph 1020.8mb 55f 52f
3:50pm 9ft 8s 6s 27 31 mph 1021mb 55f 51f